sensor_id;sensor_type;location;lat;lon;timestamp;P1;durP1;ratioP1;P2;durP2;ratioP2
32734;SDS011;19112;51.076;3.706;2023-04-29T00:01:08;58.40;;;26.40;;
32734;SDS011;19112;51.076;3.706;2023-04-29T00:03:34;62.25;;;26.30;;
32734;SDS011;19112;51.076;3.706;2023-04-29T00:06:00;62.45;;;26.52;;
32734;SDS011;19112;51.076;3.706;2023-04-29T00:08:26;63.58;;;28.08;;
32734;SDS011;19112;51.076;3.706;2023-04-29T00:10:52;62.45;;;27.67;;
32734;SDS011;19112;51.076;3.706;2023-04-29T00:13:18;57.30;;;27.13;;
32734;SDS011;19112;51.076;3.706;2023-04-29T00:15:44;62.50;;;28.23;;
32734;SDS011;19112;51.076;3.706;2023-04-29T00:18:10;60.08;;;26.98;;
32734;SDS011;19112;51.076;3.706;2023-04-29T00:20:38;60.65;;;27.33;;
32734;SDS011;19112;51.076;3.706;2023-04-29T00:23:04;66.60;;;28.27;;
32734;SDS011;19112;51.076;3.706;2023-04-29T00:25:31;60.17;;;28.77;;
32734;SDS011;19112;51.076;3.706;2023-04-29T00:27:57;64.85;;;27.83;;
32734;SDS011;19112;51.076;3.706;2023-04-29T00:30:26;61.55;;;28.25;;
32734;SDS011;19112;51.076;3.706;2023-04-29T00:32:53;66.55;;;28.95;;
32734;SDS011;19112;51.076;3.706;2023-04-29T00:35:19;66.57;;;28.95;;
32734;SDS011;19112;51.076;3.706;2023-04-29T00:37:46;72.57;;;29.75;;
32734;SDS011;19112;51.076;3.706;2023-04-29T00:40:12;71.00;;;30.63;;
32734;SDS011;19112;51.076;3.706;2023-04-29T00:42:41;73.03;;;30.85;;
32734;SDS011;19112;51.076;3.706;2023-04-29T00:45:08;68.13;;;30.00;;
32734;SDS011;19112;51.076;3.706;2023-04-29T00:47:38;73.57;;;30.63;;
32734;SDS011;19112;51.076;3.706;2023-04-29T00:50:04;65.90;;;30.52;;
32734;SDS011;19112;51.076;3.706;2023-04-29T00:52:31;78.60;;;31.20;;
32734;SDS011;19112;51.076;3.706;2023-04-29T00:54:58;71.00;;;31.55;;
32734;SDS011;19112;51.076;3.706;2023-04-29T00:57:24;64.90;;;29.42;;
32734;SDS011;19112;51.076;3.706;2023-04-29T00:59:55;61.47;;;28.77;;
32734;SDS011;19112;51.076;3.706;2023-04-29T01:02:22;72.13;;;31.33;;
32734;SDS011;19112;51.076;3.706;2023-04-29T01:04:49;73.68;;;30.33;;
32734;SDS011;19112;51.076;3.706;2023-04-29T01:10:13;60.10;;;27.27;;
32734;SDS011;19112;51.076;3.706;2023-04-29T01:16:00;57.95;;;27.20;;
32734;SDS011;19112;51.076;3.706;2023-04-29T01:18:30;56.85;;;26.05;;
32734;SDS011;19112;51.076;3.706;2023-04-29T01:21:05;48.67;;;25.67;;
32734;SDS011;19112;51.076;3.706;2023-04-29T01:23:32;52.13;;;25.58;;
32734;SDS011;19112;51.076;3.706;2023-04-29T01:25:57;61.08;;;27.48;;
32734;SDS011;19112;51.076;3.706;2023-04-29T01:37:06;54.35;;;25.92;;
32734;SDS011;19112;51.076;3.706;2023-04-29T01:42:28;46.53;;;24.37;;
32734;SDS011;19112;51.076;3.706;2023-04-29T01:45:10;47.28;;;21.60;;
32734;SDS011;19112;51.076;3.706;2023-04-29T01:47:40;46.65;;;21.90;;
32734;SDS011;19112;51.076;3.706;2023-04-29T01:50:07;37.72;;;19.50;;
32734;SDS011;19112;51.076;3.706;2023-04-29T01:52:34;34.72;;;17.33;;
32734;SDS011;19112;51.076;3.706;2023-04-29T01:55:01;34.20;;;18.13;;
32734;SDS011;19112;51.076;3.706;2023-04-29T01:57:27;36.47;;;18.42;;
32734;SDS011;19112;51.076;3.706;2023-04-29T01:59:53;40.35;;;18.75;;
32734;SDS011;19112;51.076;3.706;2023-04-29T02:02:19;38.15;;;20.45;;
32734;SDS011;19112;51.076;3.706;2023-04-29T02:04:47;41.80;;;21.15;;
32734;SDS011;19112;51.076;3.706;2023-04-29T02:07:14;42.55;;;21.25;;
32734;SDS011;19112;51.076;3.706;2023-04-29T02:09:41;39.70;;;22.17;;
32734;SDS011;19112;51.076;3.706;2023-04-29T02:12:07;41.97;;;21.50;;
32734;SDS011;19112;51.076;3.706;2023-04-29T02:14:33;43.05;;;23.52;;
32734;SDS011;19112;51.076;3.706;2023-04-29T02:16:59;46.67;;;22.77;;
32734;SDS011;19112;51.076;3.706;2023-04-29T02:19:24;42.58;;;23.02;;
32734;SDS011;19112;51.076;3.706;2023-04-29T02:21:50;43.92;;;21.42;;
32734;SDS011;19112;51.076;3.706;2023-04-29T02:24:16;45.28;;;23.23;;
32734;SDS011;19112;51.076;3.706;2023-04-29T02:26:42;39.25;;;18.70;;
32734;SDS011;19112;51.076;3.706;2023-04-29T02:29:08;39.22;;;19.58;;
32734;SDS011;19112;51.076;3.706;2023-04-29T02:31:34;37.53;;;19.60;;
32734;SDS011;19112;51.076;3.706;2023-04-29T02:34:00;42.13;;;19.75;;
32734;SDS011;19112;51.076;3.706;2023-04-29T02:36:26;40.15;;;19.52;;
32734;SDS011;19112;51.076;3.706;2023-04-29T02:38:52;38.22;;;18.17;;
32734;SDS011;19112;51.076;3.706;2023-04-29T02:41:20;34.78;;;17.50;;
32734;SDS011;19112;51.076;3.706;2023-04-29T02:43:46;41.70;;;18.60;;
32734;SDS011;19112;51.076;3.706;2023-04-29T02:46:13;38.40;;;18.38;;
32734;SDS011;19112;51.076;3.706;2023-04-29T02:48:40;35.53;;;17.02;;
32734;SDS011;19112;51.076;3.706;2023-04-29T02:51:06;41.58;;;20.98;;
32734;SDS011;19112;51.076;3.706;2023-04-29T02:53:32;39.42;;;19.83;;
32734;SDS011;19112;51.076;3.706;2023-04-29T02:55:58;39.67;;;21.02;;
32734;SDS011;19112;51.076;3.706;2023-04-29T02:58:24;40.22;;;20.15;;
32734;SDS011;19112;51.076;3.706;2023-04-29T03:00:50;36.45;;;19.33;;
32734;SDS011;19112;51.076;3.706;2023-04-29T03:03:15;34.67;;;18.88;;
32734;SDS011;19112;51.076;3.706;2023-04-29T03:05:41;35.35;;;18.30;;
32734;SDS011;19112;51.076;3.706;2023-04-29T03:08:07;33.78;;;17.85;;
32734;SDS011;19112;51.076;3.706;2023-04-29T03:10:34;37.92;;;17.15;;
32734;SDS011;19112;51.076;3.706;2023-04-29T03:13:01;32.92;;;18.25;;
32734;SDS011;19112;51.076;3.706;2023-04-29T03:15:27;33.50;;;17.00;;
32734;SDS011;19112;51.076;3.706;2023-04-29T03:17:53;36.30;;;18.63;;
32734;SDS011;19112;51.076;3.706;2023-04-29T03:20:19;37.22;;;17.90;;
32734;SDS011;19112;51.076;3.706;2023-04-29T03:22:45;44.42;;;17.85;;
32734;SDS011;19112;51.076;3.706;2023-04-29T03:25:11;39.03;;;18.00;;
32734;SDS011;19112;51.076;3.706;2023-04-29T03:27:37;38.00;;;17.88;;
32734;SDS011;19112;51.076;3.706;2023-04-29T03:30:04;36.30;;;18.83;;
32734;SDS011;19112;51.076;3.706;2023-04-29T03:32:31;37.13;;;17.63;;
32734;SDS011;19112;51.076;3.706;2023-04-29T03:34:57;38.88;;;18.02;;
32734;SDS011;19112;51.076;3.706;2023-04-29T03:37:23;40.08;;;17.30;;
32734;SDS011;19112;51.076;3.706;2023-04-29T03:39:48;38.10;;;17.27;;
32734;SDS011;19112;51.076;3.706;2023-04-29T03:42:14;36.47;;;17.98;;
32734;SDS011;19112;51.076;3.706;2023-04-29T03:44:40;39.05;;;17.20;;
32734;SDS011;19112;51.076;3.706;2023-04-29T03:47:06;36.92;;;17.67;;
32734;SDS011;19112;51.076;3.706;2023-04-29T03:49:32;31.00;;;15.93;;
32734;SDS011;19112;51.076;3.706;2023-04-29T03:51:58;38.55;;;15.98;;
32734;SDS011;19112;51.076;3.706;2023-04-29T03:54:24;33.28;;;16.25;;
32734;SDS011;19112;51.076;3.706;2023-04-29T03:56:51;34.70;;;15.55;;
32734;SDS011;19112;51.076;3.706;2023-04-29T03:59:16;32.15;;;15.63;;
32734;SDS011;19112;51.076;3.706;2023-04-29T04:01:42;36.92;;;16.58;;
32734;SDS011;19112;51.076;3.706;2023-04-29T04:04:08;37.63;;;17.73;;
32734;SDS011;19112;51.076;3.706;2023-04-29T04:06:34;33.50;;;16.52;;
32734;SDS011;19112;51.076;3.706;2023-04-29T04:09:00;34.97;;;16.98;;
32734;SDS011;19112;51.076;3.706;2023-04-29T04:11:25;36.90;;;17.02;;
32734;SDS011;19112;51.076;3.706;2023-04-29T04:13:51;35.17;;;15.90;;
32734;SDS011;19112;51.076;3.706;2023-04-29T04:16:17;33.22;;;16.55;;
32734;SDS011;19112;51.076;3.706;2023-04-29T04:18:43;33.67;;;15.95;;
32734;SDS011;19112;51.076;3.706;2023-04-29T04:21:09;34.08;;;15.23;;
32734;SDS011;19112;51.076;3.706;2023-04-29T04:23:36;33.03;;;15.77;;
32734;SDS011;19112;51.076;3.706;2023-04-29T04:26:06;34.38;;;15.63;;
32734;SDS011;19112;51.076;3.706;2023-04-29T04:28:32;33.53;;;15.43;;
32734;SDS011;19112;51.076;3.706;2023-04-29T04:30:58;35.30;;;15.38;;
32734;SDS011;19112;51.076;3.706;2023-04-29T04:33:24;38.78;;;16.88;;
32734;SDS011;19112;51.076;3.706;2023-04-29T04:35:51;32.15;;;16.58;;
32734;SDS011;19112;51.076;3.706;2023-04-29T04:38:17;32.75;;;16.27;;
32734;SDS011;19112;51.076;3.706;2023-04-29T04:40:43;37.75;;;17.35;;
32734;SDS011;19112;51.076;3.706;2023-04-29T04:43:09;40.17;;;17.65;;
32734;SDS011;19112;51.076;3.706;2023-04-29T04:45:35;37.40;;;18.02;;
32734;SDS011;19112;51.076;3.706;2023-04-29T04:48:01;38.63;;;17.58;;
32734;SDS011;19112;51.076;3.706;2023-04-29T04:50:27;35.75;;;18.23;;
32734;SDS011;19112;51.076;3.706;2023-04-29T04:52:57;41.15;;;18.33;;
32734;SDS011;19112;51.076;3.706;2023-04-29T04:55:23;31.38;;;17.17;;
32734;SDS011;19112;51.076;3.706;2023-04-29T04:57:49;35.10;;;17.77;;
32734;SDS011;19112;51.076;3.706;2023-04-29T05:00:15;37.25;;;18.80;;
32734;SDS011;19112;51.076;3.706;2023-04-29T05:02:42;41.67;;;19.65;;
32734;SDS011;19112;51.076;3.706;2023-04-29T05:05:08;37.47;;;19.60;;
32734;SDS011;19112;51.076;3.706;2023-04-29T05:07:34;37.70;;;19.98;;
32734;SDS011;19112;51.076;3.706;2023-04-29T05:10:03;38.22;;;19.30;;
32734;SDS011;19112;51.076;3.706;2023-04-29T05:12:30;38.63;;;19.58;;
32734;SDS011;19112;51.076;3.706;2023-04-29T05:14:56;40.50;;;20.92;;
32734;SDS011;19112;51.076;3.706;2023-04-29T05:17:22;43.78;;;21.38;;
32734;SDS011;19112;51.076;3.706;2023-04-29T05:19:49;40.60;;;21.45;;
32734;SDS011;19112;51.076;3.706;2023-04-29T05:22:15;40.03;;;20.50;;
32734;SDS011;19112;51.076;3.706;2023-04-29T05:24:41;38.80;;;20.83;;
32734;SDS011;19112;51.076;3.706;2023-04-29T05:27:07;39.08;;;20.20;;
32734;SDS011;19112;51.076;3.706;2023-04-29T05:29:33;39.58;;;20.88;;
32734;SDS011;19112;51.076;3.706;2023-04-29T05:31:59;43.05;;;21.33;;
32734;SDS011;19112;51.076;3.706;2023-04-29T05:34:24;41.83;;;20.88;;
32734;SDS011;19112;51.076;3.706;2023-04-29T05:36:50;36.85;;;20.00;;
32734;SDS011;19112;51.076;3.706;2023-04-29T05:39:16;40.95;;;20.25;;
32734;SDS011;19112;51.076;3.706;2023-04-29T05:41:42;42.53;;;20.33;;
32734;SDS011;19112;51.076;3.706;2023-04-29T05:44:08;38.22;;;20.67;;
32734;SDS011;19112;51.076;3.706;2023-04-29T05:46:34;42.92;;;21.60;;
32734;SDS011;19112;51.076;3.706;2023-04-29T05:49:00;43.78;;;21.70;;
32734;SDS011;19112;51.076;3.706;2023-04-29T05:51:26;40.25;;;21.90;;
32734;SDS011;19112;51.076;3.706;2023-04-29T05:53:52;42.35;;;22.00;;
32734;SDS011;19112;51.076;3.706;2023-04-29T05:56:19;40.50;;;22.35;;
32734;SDS011;19112;51.076;3.706;2023-04-29T05:58:46;43.63;;;21.58;;
32734;SDS011;19112;51.076;3.706;2023-04-29T06:01:12;39.92;;;21.20;;
32734;SDS011;19112;51.076;3.706;2023-04-29T06:03:38;40.28;;;21.45;;
32734;SDS011;19112;51.076;3.706;2023-04-29T06:06:03;38.83;;;21.17;;
32734;SDS011;19112;51.076;3.706;2023-04-29T06:08:29;43.42;;;20.83;;
32734;SDS011;19112;51.076;3.706;2023-04-29T06:10:55;37.85;;;22.17;;
32734;SDS011;19112;51.076;3.706;2023-04-29T06:13:21;41.35;;;21.65;;
32734;SDS011;19112;51.076;3.706;2023-04-29T06:15:47;42.78;;;22.30;;
32734;SDS011;19112;51.076;3.706;2023-04-29T06:18:13;41.35;;;22.23;;
32734;SDS011;19112;51.076;3.706;2023-04-29T06:20:39;41.53;;;21.77;;
32734;SDS011;19112;51.076;3.706;2023-04-29T06:23:05;41.00;;;20.30;;
32734;SDS011;19112;51.076;3.706;2023-04-29T06:25:31;42.85;;;21.05;;
32734;SDS011;19112;51.076;3.706;2023-04-29T06:27:57;46.88;;;21.70;;
32734;SDS011;19112;51.076;3.706;2023-04-29T06:30:23;43.42;;;21.75;;
32734;SDS011;19112;51.076;3.706;2023-04-29T06:32:49;40.05;;;20.85;;
32734;SDS011;19112;51.076;3.706;2023-04-29T06:35:15;36.40;;;19.88;;
32734;SDS011;19112;51.076;3.706;2023-04-29T06:37:41;46.85;;;20.45;;
32734;SDS011;19112;51.076;3.706;2023-04-29T06:40:07;36.15;;;20.20;;
32734;SDS011;19112;51.076;3.706;2023-04-29T06:42:33;42.15;;;19.73;;
32734;SDS011;19112;51.076;3.706;2023-04-29T06:45:00;38.88;;;20.30;;
32734;SDS011;19112;51.076;3.706;2023-04-29T06:47:26;37.78;;;20.38;;
32734;SDS011;19112;51.076;3.706;2023-04-29T06:49:52;39.83;;;20.08;;
32734;SDS011;19112;51.076;3.706;2023-04-29T06:52:18;37.45;;;19.67;;
32734;SDS011;19112;51.076;3.706;2023-04-29T06:54:44;35.97;;;18.85;;
32734;SDS011;19112;51.076;3.706;2023-04-29T06:57:10;41.92;;;19.30;;
32734;SDS011;19112;51.076;3.706;2023-04-29T06:59:36;39.28;;;18.98;;
32734;SDS011;19112;51.076;3.706;2023-04-29T07:02:02;37.05;;;18.90;;
32734;SDS011;19112;51.076;3.706;2023-04-29T07:04:28;39.00;;;19.13;;
32734;SDS011;19112;51.076;3.706;2023-04-29T07:06:54;39.90;;;19.88;;
32734;SDS011;19112;51.076;3.706;2023-04-29T07:09:20;37.92;;;19.50;;
32734;SDS011;19112;51.076;3.706;2023-04-29T07:11:47;38.33;;;19.17;;
32734;SDS011;19112;51.076;3.706;2023-04-29T07:14:13;35.90;;;18.20;;
32734;SDS011;19112;51.076;3.706;2023-04-29T07:16:40;38.42;;;19.00;;
32734;SDS011;19112;51.076;3.706;2023-04-29T07:19:05;37.88;;;18.42;;
32734;SDS011;19112;51.076;3.706;2023-04-29T07:21:31;35.58;;;18.65;;
32734;SDS011;19112;51.076;3.706;2023-04-29T07:23:57;35.55;;;18.60;;
32734;SDS011;19112;51.076;3.706;2023-04-29T07:26:25;35.13;;;18.63;;
32734;SDS011;19112;51.076;3.706;2023-04-29T07:28:50;35.30;;;17.83;;
32734;SDS011;19112;51.076;3.706;2023-04-29T07:31:16;35.80;;;17.17;;
32734;SDS011;19112;51.076;3.706;2023-04-29T07:33:43;35.22;;;18.63;;
32734;SDS011;19112;51.076;3.706;2023-04-29T07:36:10;32.85;;;18.63;;
32734;SDS011;19112;51.076;3.706;2023-04-29T07:38:36;36.17;;;17.35;;
32734;SDS011;19112;51.076;3.706;2023-04-29T07:41:02;33.20;;;18.27;;
32734;SDS011;19112;51.076;3.706;2023-04-29T07:43:28;38.95;;;18.48;;
32734;SDS011;19112;51.076;3.706;2023-04-29T07:45:54;36.17;;;18.48;;
32734;SDS011;19112;51.076;3.706;2023-04-29T07:48:20;38.67;;;17.55;;
32734;SDS011;19112;51.076;3.706;2023-04-29T07:50:47;32.97;;;17.50;;
32734;SDS011;19112;51.076;3.706;2023-04-29T07:53:12;33.45;;;16.33;;
32734;SDS011;19112;51.076;3.706;2023-04-29T07:55:40;36.03;;;18.48;;
32734;SDS011;19112;51.076;3.706;2023-04-29T07:58:06;40.38;;;17.38;;
32734;SDS011;19112;51.076;3.706;2023-04-29T08:00:32;33.55;;;17.10;;
32734;SDS011;19112;51.076;3.706;2023-04-29T08:02:58;30.23;;;15.55;;
32734;SDS011;19112;51.076;3.706;2023-04-29T08:05:24;35.53;;;17.20;;
32734;SDS011;19112;51.076;3.706;2023-04-29T08:07:50;33.90;;;16.58;;
32734;SDS011;19112;51.076;3.706;2023-04-29T08:10:16;35.22;;;15.20;;
32734;SDS011;19112;51.076;3.706;2023-04-29T08:12:49;30.15;;;15.63;;
32734;SDS011;19112;51.076;3.706;2023-04-29T08:15:15;27.08;;;14.35;;
32734;SDS011;19112;51.076;3.706;2023-04-29T08:17:42;30.98;;;16.58;;
32734;SDS011;19112;51.076;3.706;2023-04-29T08:20:08;32.75;;;17.67;;
32734;SDS011;19112;51.076;3.706;2023-04-29T08:22:35;33.47;;;17.48;;
32734;SDS011;19112;51.076;3.706;2023-04-29T08:25:02;32.85;;;16.75;;
32734;SDS011;19112;51.076;3.706;2023-04-29T08:27:29;28.85;;;16.63;;
32734;SDS011;19112;51.076;3.706;2023-04-29T08:29:55;32.15;;;17.73;;
32734;SDS011;19112;51.076;3.706;2023-04-29T08:32:21;35.08;;;17.35;;
32734;SDS011;19112;51.076;3.706;2023-04-29T08:34:47;29.83;;;16.23;;
32734;SDS011;19112;51.076;3.706;2023-04-29T08:37:13;32.67;;;15.82;;
32734;SDS011;19112;51.076;3.706;2023-04-29T08:39:40;34.35;;;16.20;;
32734;SDS011;19112;51.076;3.706;2023-04-29T08:42:10;31.15;;;16.55;;
32734;SDS011;19112;51.076;3.706;2023-04-29T08:44:37;30.42;;;15.45;;
32734;SDS011;19112;51.076;3.706;2023-04-29T08:47:05;29.85;;;15.35;;
32734;SDS011;19112;51.076;3.706;2023-04-29T08:49:31;29.42;;;15.88;;
32734;SDS011;19112;51.076;3.706;2023-04-29T08:51:58;28.90;;;14.85;;
32734;SDS011;19112;51.076;3.706;2023-04-29T08:54:24;32.88;;;15.02;;
32734;SDS011;19112;51.076;3.706;2023-04-29T08:56:52;28.77;;;14.85;;
32734;SDS011;19112;51.076;3.706;2023-04-29T08:59:22;32.05;;;14.85;;
32734;SDS011;19112;51.076;3.706;2023-04-29T09:01:49;30.73;;;14.07;;
32734;SDS011;19112;51.076;3.706;2023-04-29T09:04:36;29.75;;;15.40;;
32734;SDS011;19112;51.076;3.706;2023-04-29T09:07:10;29.20;;;14.95;;
32734;SDS011;19112;51.076;3.706;2023-04-29T09:09:38;30.15;;;14.73;;
32734;SDS011;19112;51.076;3.706;2023-04-29T09:12:05;29.98;;;14.32;;
32734;SDS011;19112;51.076;3.706;2023-04-29T09:14:31;28.27;;;14.75;;
32734;SDS011;19112;51.076;3.706;2023-04-29T09:16:58;27.38;;;14.10;;
32734;SDS011;19112;51.076;3.706;2023-04-29T09:19:28;30.95;;;15.57;;
32734;SDS011;19112;51.076;3.706;2023-04-29T09:21:56;34.58;;;15.73;;
32734;SDS011;19112;51.076;3.706;2023-04-29T09:24:25;29.90;;;15.27;;
32734;SDS011;19112;51.076;3.706;2023-04-29T09:26:53;30.13;;;15.90;;
32734;SDS011;19112;51.076;3.706;2023-04-29T09:29:20;30.98;;;15.88;;
32734;SDS011;19112;51.076;3.706;2023-04-29T09:31:47;32.58;;;17.10;;
32734;SDS011;19112;51.076;3.706;2023-04-29T09:34:13;30.00;;;15.80;;
32734;SDS011;19112;51.076;3.706;2023-04-29T09:36:41;32.30;;;14.95;;
32734;SDS011;19112;51.076;3.706;2023-04-29T09:39:15;30.55;;;15.85;;
32734;SDS011;19112;51.076;3.706;2023-04-29T09:44:25;28.77;;;15.25;;
32734;SDS011;19112;51.076;3.706;2023-04-29T09:46:56;29.65;;;14.65;;
32734;SDS011;19112;51.076;3.706;2023-04-29T09:49:28;31.13;;;16.42;;
32734;SDS011;19112;51.076;3.706;2023-04-29T09:51:58;30.00;;;15.18;;
32734;SDS011;19112;51.076;3.706;2023-04-29T09:54:26;29.20;;;16.02;;
32734;SDS011;19112;51.076;3.706;2023-04-29T09:56:54;31.45;;;15.63;;
32734;SDS011;19112;51.076;3.706;2023-04-29T09:59:23;31.80;;;15.70;;
32734;SDS011;19112;51.076;3.706;2023-04-29T10:01:50;33.40;;;15.55;;
32734;SDS011;19112;51.076;3.706;2023-04-29T10:04:21;28.33;;;15.18;;
32734;SDS011;19112;51.076;3.706;2023-04-29T10:06:51;28.70;;;14.82;;
32734;SDS011;19112;51.076;3.706;2023-04-29T10:09:19;29.23;;;14.27;;
32734;SDS011;19112;51.076;3.706;2023-04-29T10:11:47;28.55;;;14.48;;
32734;SDS011;19112;51.076;3.706;2023-04-29T10:14:17;28.27;;;14.60;;
32734;SDS011;19112;51.076;3.706;2023-04-29T10:19:30;34.58;;;15.80;;
32734;SDS011;19112;51.076;3.706;2023-04-29T10:22:06;29.52;;;14.70;;
32734;SDS011;19112;51.076;3.706;2023-04-29T10:24:36;28.95;;;14.90;;
32734;SDS011;19112;51.076;3.706;2023-04-29T10:27:07;28.25;;;15.07;;
32734;SDS011;19112;51.076;3.706;2023-04-29T10:29:36;29.40;;;14.10;;
32734;SDS011;19112;51.076;3.706;2023-04-29T10:32:06;32.92;;;15.60;;
32734;SDS011;19112;51.076;3.706;2023-04-29T10:34:34;35.85;;;15.70;;
32734;SDS011;19112;51.076;3.706;2023-04-29T10:37:06;29.27;;;15.35;;
32734;SDS011;19112;51.076;3.706;2023-04-29T10:39:38;29.98;;;15.27;;
32734;SDS011;19112;51.076;3.706;2023-04-29T10:42:15;38.13;;;18.42;;
32734;SDS011;19112;51.076;3.706;2023-04-29T10:50:27;39.70;;;20.08;;
32734;SDS011;19112;51.076;3.706;2023-04-29T10:52:54;40.40;;;18.88;;
32734;SDS011;19112;51.076;3.706;2023-04-29T10:55:22;38.70;;;19.58;;
32734;SDS011;19112;51.076;3.706;2023-04-29T10:57:49;34.70;;;17.52;;
32734;SDS011;19112;51.076;3.706;2023-04-29T11:00:21;37.03;;;17.58;;
32734;SDS011;19112;51.076;3.706;2023-04-29T11:02:55;34.97;;;17.88;;
32734;SDS011;19112;51.076;3.706;2023-04-29T11:05:33;41.20;;;19.95;;
32734;SDS011;19112;51.076;3.706;2023-04-29T11:08:08;42.40;;;21.52;;
32734;SDS011;19112;51.076;3.706;2023-04-29T11:10:47;40.20;;;21.67;;
32734;SDS011;19112;51.076;3.706;2023-04-29T11:18:35;32.55;;;16.90;;
32734;SDS011;19112;51.076;3.706;2023-04-29T11:21:43;34.15;;;15.50;;
32734;SDS011;19112;51.076;3.706;2023-04-29T11:24:11;30.60;;;15.52;;
32734;SDS011;19112;51.076;3.706;2023-04-29T11:26:39;28.13;;;13.95;;
32734;SDS011;19112;51.076;3.706;2023-04-29T11:29:06;35.95;;;19.05;;
32734;SDS011;19112;51.076;3.706;2023-04-29T11:31:36;34.22;;;18.13;;
32734;SDS011;19112;51.076;3.706;2023-04-29T11:34:03;37.20;;;19.15;;
32734;SDS011;19112;51.076;3.706;2023-04-29T11:36:31;35.47;;;18.60;;
32734;SDS011;19112;51.076;3.706;2023-04-29T11:39:01;33.30;;;17.63;;
32734;SDS011;19112;51.076;3.706;2023-04-29T11:41:29;32.35;;;15.75;;
32734;SDS011;19112;51.076;3.706;2023-04-29T11:43:58;28.70;;;13.43;;
32734;SDS011;19112;51.076;3.706;2023-04-29T11:46:25;30.48;;;15.80;;
32734;SDS011;19112;51.076;3.706;2023-04-29T11:48:56;26.98;;;14.15;;
32734;SDS011;19112;51.076;3.706;2023-04-29T11:51:23;28.48;;;14.65;;
32734;SDS011;19112;51.076;3.706;2023-04-29T11:53:50;26.70;;;13.60;;
32734;SDS011;19112;51.076;3.706;2023-04-29T11:56:16;25.58;;;12.45;;
32734;SDS011;19112;51.076;3.706;2023-04-29T11:58:45;23.73;;;10.98;;
32734;SDS011;19112;51.076;3.706;2023-04-29T12:01:11;23.40;;;11.25;;
32734;SDS011;19112;51.076;3.706;2023-04-29T12:03:36;25.98;;;11.25;;
32734;SDS011;19112;51.076;3.706;2023-04-29T12:06:02;28.33;;;13.23;;
32734;SDS011;19112;51.076;3.706;2023-04-29T12:08:28;26.27;;;13.27;;
32734;SDS011;19112;51.076;3.706;2023-04-29T12:10:56;31.92;;;14.82;;
32734;SDS011;19112;51.076;3.706;2023-04-29T12:13:24;23.88;;;11.95;;
32734;SDS011;19112;51.076;3.706;2023-04-29T12:15:54;24.13;;;12.57;;
32734;SDS011;19112;51.076;3.706;2023-04-29T12:18:22;23.13;;;12.48;;
32734;SDS011;19112;51.076;3.706;2023-04-29T12:20:51;24.95;;;13.35;;
32734;SDS011;19112;51.076;3.706;2023-04-29T12:23:18;23.83;;;12.65;;
32734;SDS011;19112;51.076;3.706;2023-04-29T12:25:50;26.33;;;13.63;;
32734;SDS011;19112;51.076;3.706;2023-04-29T12:28:22;32.35;;;18.88;;
32734;SDS011;19112;51.076;3.706;2023-04-29T12:30:49;33.42;;;15.88;;
32734;SDS011;19112;51.076;3.706;2023-04-29T12:33:18;27.90;;;14.73;;
32734;SDS011;19112;51.076;3.706;2023-04-29T12:35:49;25.25;;;14.00;;
32734;SDS011;19112;51.076;3.706;2023-04-29T12:38:26;28.20;;;14.02;;
32734;SDS011;19112;51.076;3.706;2023-04-29T12:40:55;28.35;;;14.00;;
32734;SDS011;19112;51.076;3.706;2023-04-29T12:43:30;27.17;;;14.15;;
32734;SDS011;19112;51.076;3.706;2023-04-29T12:46:07;26.02;;;13.93;;
32734;SDS011;19112;51.076;3.706;2023-04-29T12:48:35;27.52;;;14.52;;
32734;SDS011;19112;51.076;3.706;2023-04-29T12:51:10;26.27;;;12.55;;
32734;SDS011;19112;51.076;3.706;2023-04-29T12:53:37;21.67;;;11.50;;
32734;SDS011;19112;51.076;3.706;2023-04-29T12:56:03;27.17;;;12.82;;
32734;SDS011;19112;51.076;3.706;2023-04-29T12:58:30;22.10;;;11.75;;
32734;SDS011;19112;51.076;3.706;2023-04-29T13:00:58;23.65;;;12.43;;
32734;SDS011;19112;51.076;3.706;2023-04-29T13:03:25;25.60;;;12.55;;
32734;SDS011;19112;51.076;3.706;2023-04-29T13:05:50;23.42;;;11.38;;
32734;SDS011;19112;51.076;3.706;2023-04-29T13:08:18;22.15;;;11.13;;
32734;SDS011;19112;51.076;3.706;2023-04-29T13:10:45;23.85;;;10.93;;
32734;SDS011;19112;51.076;3.706;2023-04-29T13:13:11;22.23;;;11.75;;
32734;SDS011;19112;51.076;3.706;2023-04-29T13:15:37;26.85;;;13.38;;
32734;SDS011;19112;51.076;3.706;2023-04-29T13:18:06;38.90;;;19.45;;
32734;SDS011;19112;51.076;3.706;2023-04-29T13:20:32;36.83;;;17.90;;
32734;SDS011;19112;51.076;3.706;2023-04-29T13:22:59;29.10;;;15.35;;
32734;SDS011;19112;51.076;3.706;2023-04-29T13:25:25;29.52;;;13.80;;
32734;SDS011;19112;51.076;3.706;2023-04-29T13:27:51;30.80;;;15.82;;
32734;SDS011;19112;51.076;3.706;2023-04-29T13:30:17;30.10;;;16.35;;
32734;SDS011;19112;51.076;3.706;2023-04-29T13:32:42;30.77;;;15.77;;
32734;SDS011;19112;51.076;3.706;2023-04-29T13:35:09;37.22;;;18.17;;
32734;SDS011;19112;51.076;3.706;2023-04-29T13:37:35;33.53;;;19.02;;
32734;SDS011;19112;51.076;3.706;2023-04-29T13:40:01;38.13;;;18.92;;
32734;SDS011;19112;51.076;3.706;2023-04-29T13:42:28;38.60;;;19.77;;
32734;SDS011;19112;51.076;3.706;2023-04-29T13:44:54;35.33;;;18.98;;
32734;SDS011;19112;51.076;3.706;2023-04-29T13:47:21;32.03;;;18.33;;
32734;SDS011;19112;51.076;3.706;2023-04-29T13:49:47;43.25;;;24.83;;
32734;SDS011;19112;51.076;3.706;2023-04-29T13:52:13;44.13;;;25.25;;
32734;SDS011;19112;51.076;3.706;2023-04-29T13:54:39;41.60;;;24.25;;
32734;SDS011;19112;51.076;3.706;2023-04-29T13:57:05;37.63;;;23.05;;
32734;SDS011;19112;51.076;3.706;2023-04-29T13:59:31;40.92;;;23.77;;
32734;SDS011;19112;51.076;3.706;2023-04-29T14:01:58;42.10;;;25.33;;
32734;SDS011;19112;51.076;3.706;2023-04-29T14:04:25;35.92;;;20.77;;
32734;SDS011;19112;51.076;3.706;2023-04-29T14:06:52;39.80;;;19.83;;
32734;SDS011;19112;51.076;3.706;2023-04-29T14:09:19;34.25;;;19.08;;
32734;SDS011;19112;51.076;3.706;2023-04-29T14:11:46;34.83;;;20.10;;
32734;SDS011;19112;51.076;3.706;2023-04-29T14:14:13;32.28;;;19.52;;
32734;SDS011;19112;51.076;3.706;2023-04-29T14:16:40;36.67;;;21.90;;
32734;SDS011;19112;51.076;3.706;2023-04-29T14:19:07;37.30;;;21.02;;
32734;SDS011;19112;51.076;3.706;2023-04-29T14:21:33;30.33;;;18.05;;
32734;SDS011;19112;51.076;3.706;2023-04-29T14:23:59;31.08;;;19.05;;
32734;SDS011;19112;51.076;3.706;2023-04-29T14:26:26;34.58;;;21.50;;
32734;SDS011;19112;51.076;3.706;2023-04-29T14:28:53;34.67;;;19.40;;
32734;SDS011;19112;51.076;3.706;2023-04-29T14:31:25;39.40;;;22.50;;
32734;SDS011;19112;51.076;3.706;2023-04-29T14:33:54;45.58;;;24.80;;
32734;SDS011;19112;51.076;3.706;2023-04-29T14:36:21;40.22;;;24.55;;
32734;SDS011;19112;51.076;3.706;2023-04-29T14:38:47;40.53;;;24.80;;
32734;SDS011;19112;51.076;3.706;2023-04-29T14:41:13;39.67;;;22.45;;
32734;SDS011;19112;51.076;3.706;2023-04-29T14:43:39;39.95;;;22.00;;
32734;SDS011;19112;51.076;3.706;2023-04-29T14:46:06;35.92;;;20.75;;
32734;SDS011;19112;51.076;3.706;2023-04-29T14:48:33;34.63;;;19.25;;
32734;SDS011;19112;51.076;3.706;2023-04-29T14:50:59;31.88;;;17.83;;
32734;SDS011;19112;51.076;3.706;2023-04-29T14:53:25;30.00;;;18.20;;
32734;SDS011;19112;51.076;3.706;2023-04-29T14:55:51;33.53;;;17.48;;